Time;durP1;ratioP1;P1;durP2;ratioP2;P2;SDS_P1;SDS_P2;PMS_P1;PMS_P2;Temp;Humidity;BMP_temperature;BMP_pressure;BME280_temperature;BME280_humidity;BME280_pressure;Samples;Min_cycle;Max_cycle;Signal;HPM_P1;HPM_P2
2022/04/23 00:00:07;;;;;;;23.20;19.43;;;;;;;11.53;69.27;99512.53;4982423;28;20456;-81
2022/04/23 00:02:33;;;;;;;22.37;20.07;;;;;;;11.50;69.48;99509.19;4982396;28;20468;-80
2022/04/23 00:05:00;;;;;;;23.40;20.90;;;;;;;11.49;69.30;99510.22;4981983;28;20484;-81
2022/04/23 00:07:27;;;;;;;21.97;19.67;;;;;;;11.45;69.15;99508.00;4981988;28;20488;-80
2022/04/23 00:09:53;;;;;;;22.07;19.70;;;;;;;11.53;68.99;99500.00;4977658;28;20477;-80
2022/04/23 00:12:20;;;;;;;21.10;18.80;;;;;;;11.57;68.95;99495.97;4981201;28;21079;-78
2022/04/23 00:14:46;;;;;;;20.30;17.30;;;;;;;11.44;69.12;99501.84;4982675;28;20456;-77
2022/04/23 00:17:14;;;;;;;20.87;18.77;;;;;;;11.55;68.72;99503.34;4981975;28;20486;-78
2022/04/23 00:19:44;;;;;;;20.53;17.87;;;;;;;11.52;68.76;99502.84;4981372;28;20464;-77
2022/04/23 00:22:10;;;;;;;20.87;18.67;;;;;;;11.54;68.95;99495.47;4981705;28;20487;-81
2022/04/23 00:24:37;;;;;;;20.50;18.30;;;;;;;11.43;69.03;99502.00;4982349;28;20976;-80
2022/04/23 00:27:04;;;;;;;19.90;17.90;;;;;;;11.49;68.92;99501.31;4981195;28;20519;-80
2022/04/23 00:29:31;;;;;;;19.93;17.93;;;;;;;11.49;69.17;99493.28;4982346;28;20476;-82
2022/04/23 00:31:57;;;;;;;21.27;17.43;;;;;;;11.51;68.81;99502.00;4981776;28;20850;-79
2022/04/23 00:34:26;;;;;;;18.37;16.17;;;;;;;11.47;69.07;99495.28;4981358;28;20440;-82
2022/04/23 00:36:53;;;;;;;21.20;19.00;;;;;;;11.61;68.87;99496.47;4982243;28;20799;-81
2022/04/23 00:39:19;;;;;;;20.73;17.47;;;;;;;11.55;68.95;99498.00;4981992;28;20475;-82
2022/04/23 00:41:51;;;;;;;20.10;16.67;;;;;;;11.54;69.03;99496.31;4981092;28;20566;-82
2022/04/23 00:44:18;;;;;;;19.87;17.77;;;;;;;11.49;69.16;99487.94;4982046;28;20495;-81
2022/04/23 00:46:46;;;;;;;19.77;17.70;;;;;;;11.56;68.74;99485.44;4985188;28;21008;-81
2022/04/23 00:49:13;;;;;;;19.10;17.23;;;;;;;11.63;68.74;99491.78;4996722;28;20460;-81
2022/04/23 00:51:42;;;;;;;18.33;16.43;;;;;;;11.60;68.69;99489.47;4985928;28;20475;-79
2022/04/23 00:54:10;;;;;;;18.67;16.77;;;;;;;11.67;68.40;99479.78;4986102;28;20519;-79
2022/04/23 00:56:38;;;;;;;22.70;18.90;;;;;;;11.71;68.47;99486.47;4984749;28;20599;-80
2022/04/23 00:59:06;;;;;;;17.73;15.93;;;;;;;11.72;68.38;99479.25;4986514;28;20436;-78
2022/04/23 01:01:32;;;;;;;19.80;17.80;;;;;;;11.57;68.72;99481.78;4987984;28;20491;-79
2022/04/23 01:04:02;;;;;;;18.60;16.70;;;;;;;11.73;68.24;99483.63;4987571;28;20479;-79
2022/04/23 01:06:32;;;;;;;18.70;16.70;;;;;;;11.57;68.64;99479.91;5003251;28;20482;-78
2022/04/23 01:09:00;;;;;;;18.00;16.10;;;;;;;11.59;68.52;99483.25;4990797;28;20452;-79
2022/04/23 01:11:26;;;;;;;18.37;16.57;;;;;;;11.69;68.16;99483.13;4984681;28;20490;-79
2022/04/23 01:13:53;;;;;;;18.77;16.87;;;;;;;11.74;67.98;99478.09;4985823;28;20588;-79
2022/04/23 01:16:20;;;;;;;19.43;17.20;;;;;;;11.72;68.12;99481.94;4985253;28;20469;-79
2022/04/23 01:18:47;;;;;;;19.90;17.53;;;;;;;11.63;68.28;99473.06;4984603;28;20461;-77
2022/04/23 01:21:15;;;;;;;19.00;17.17;;;;;;;11.56;68.25;99467.56;4985418;28;20476;-78
2022/04/23 01:23:42;;;;;;;17.80;16.10;;;;;;;11.64;68.02;99474.75;4985640;28;20539;-77
2022/04/23 01:26:09;;;;;;;17.60;14.97;;;;;;;11.48;68.12;99471.03;4984173;28;20467;-77
2022/04/23 01:28:37;;;;;;;18.57;16.63;;;;;;;11.72;67.63;99477.44;4986185;28;20448;-80
2022/04/23 01:31:04;;;;;;;16.77;14.87;;;;;;;11.58;67.76;99478.94;4985212;28;20479;-78
2022/04/23 01:33:32;;;;;;;17.63;15.93;;;;;;;11.50;68.00;99470.88;4983824;28;21055;-79
2022/04/23 01:35:58;;;;;;;16.77;15.07;;;;;;;11.42;67.69;99477.06;4984905;28;20476;-80
2022/04/23 01:38:26;;;;;;;17.07;15.37;;;;;;;11.48;67.62;99486.28;4976275;28;20441;-80
2022/04/23 01:40:53;;;;;;;17.47;15.73;;;;;;;11.55;67.33;99481.09;4983334;28;20574;-80
2022/04/23 01:43:20;;;;;;;16.70;14.90;;;;;;;11.63;67.64;99481.09;4984356;28;20460;-80
2022/04/23 01:45:46;;;;;;;16.97;15.17;;;;;;;11.64;67.24;99491.63;4984848;28;20504;-79
2022/04/23 01:48:13;;;;;;;17.77;16.07;;;;;;;11.42;67.50;99484.25;4984499;28;20488;-79
2022/04/23 01:50:40;;;;;;;18.23;16.00;;;;;;;11.50;67.61;99481.59;4984989;28;20483;-80
2022/04/23 01:53:06;;;;;;;16.97;15.27;;;;;;;11.44;67.30;99480.41;4985360;28;21166;-80
2022/04/23 01:55:34;;;;;;;26.87;16.67;;;;;;;11.48;67.37;99480.94;4983677;28;20482;-80
2022/04/23 01:58:01;;;;;;;17.33;15.33;;;;;;;11.58;66.99;99481.59;4985478;28;20477;-80
2022/04/23 02:00:28;;;;;;;20.33;16.70;;;;;;;11.48;67.16;99478.25;4984710;28;20504;-80
2022/04/23 02:02:57;;;;;;;19.20;17.20;;;;;;;11.35;67.06;99481.38;4983582;28;20492;-79
2022/04/23 02:05:24;;;;;;;19.27;16.87;;;;;;;11.41;67.02;99485.28;4983713;28;20544;-80
2022/04/23 02:07:50;;;;;;;16.90;15.10;;;;;;;11.43;66.82;99472.56;4983775;28;20449;-80
2022/04/23 02:10:17;;;;;;;17.10;15.40;;;;;;;11.50;66.55;99476.25;4983766;28;20861;-79
2022/04/23 02:12:46;;;;;;;18.37;16.17;;;;;;;11.48;66.66;99475.56;4984639;28;20516;-80
2022/04/23 02:15:14;;;;;;;17.53;15.67;;;;;;;11.35;66.91;99464.50;4984626;28;20460;-80
2022/04/23 02:17:42;;;;;;;19.13;16.10;;;;;;;11.42;67.16;99462.84;4984407;28;20456;-79
2022/04/23 02:20:10;;;;;;;16.90;15.20;;;;;;;11.52;66.77;99474.22;4983479;28;20480;-81
2022/04/23 02:22:37;;;;;;;17.07;15.33;;;;;;;11.49;66.82;99471.88;4970556;28;20452;-81
2022/04/23 02:25:05;;;;;;;18.23;16.40;;;;;;;11.40;66.90;99473.69;4984222;28;20800;-81
2022/04/23 02:27:41;;;;;;;18.57;16.57;;;;;;;11.43;66.55;99462.66;4984124;28;20503;-79
2022/04/23 02:30:11;;;;;;;17.60;15.80;;;;;;;11.43;66.74;99469.88;4983542;28;20471;-80
2022/04/23 02:32:37;;;;;;;19.47;17.37;;;;;;;11.40;66.88;99468.34;4983493;28;20464;-79
2022/04/23 02:35:05;;;;;;;19.07;16.83;;;;;;;11.53;66.46;99465.19;4984284;28;20476;-79
2022/04/23 02:37:34;;;;;;;17.90;16.10;;;;;;;11.48;66.41;99471.03;4983143;28;20465;-79
2022/04/23 02:40:02;;;;;;;17.30;15.40;;;;;;;11.44;66.19;99474.22;4982842;28;20440;-80
2022/04/23 02:42:29;;;;;;;18.40;16.33;;;;;;;11.31;66.96;99469.34;4983614;28;20477;-80
2022/04/23 02:44:58;;;;;;;17.20;15.47;;;;;;;11.24;66.74;99479.03;4983777;28;20476;-80
2022/04/23 02:47:26;;;;;;;18.70;16.67;;;;;;;11.21;66.97;99471.34;4982865;28;20569;-78
2022/04/23 02:49:52;;;;;;;18.67;16.83;;;;;;;11.33;66.63;99467.34;4984167;28;20508;-80
2022/04/23 02:52:20;;;;;;;17.37;15.57;;;;;;;11.38;66.80;99469.53;4983113;28;20887;-80
2022/04/23 02:54:46;;;;;;;18.17;16.20;;;;;;;11.31;66.97;99464.81;4981928;28;20489;-79
2022/04/23 02:57:16;;;;;;;18.37;15.30;;;;;;;11.33;66.63;99471.88;4982215;28;20511;-80
2022/04/23 02:59:42;;;;;;;18.47;15.57;;;;;;;11.24;66.60;99462.97;4983255;28;20462;-79
2022/04/23 03:02:09;;;;;;;18.43;16.57;;;;;;;11.31;66.47;99467.50;4981601;28;20484;-79
2022/04/23 03:04:37;;;;;;;17.57;15.63;;;;;;;11.28;66.58;99477.69;4981617;28;20468;-80
2022/04/23 03:07:05;;;;;;;19.40;15.47;;;;;;;11.34;66.18;99479.72;4982094;28;20480;-80
2022/04/23 03:09:31;;;;;;;19.40;16.67;;;;;;;11.38;66.03;99472.22;4962306;28;21050;-80
2022/04/23 03:11:58;;;;;;;21.10;17.20;;;;;;;11.27;66.47;99473.38;4980921;28;20484;-81
2022/04/23 03:14:25;;;;;;;17.20;15.40;;;;;;;11.42;66.06;99470.88;4982411;28;20507;-81
2022/04/23 03:16:51;;;;;;;17.20;15.10;;;;;;;11.47;65.96;99469.38;4981009;28;20468;-80
2022/04/23 03:19:18;;;;;;;23.37;17.00;;;;;;;11.19;66.53;99476.00;4982492;28;20464;-82
2022/04/23 03:21:46;;;;;;;17.50;15.63;;;;;;;11.33;66.19;99478.03;4982396;28;20523;-81
2022/04/23 03:24:12;;;;;;;17.20;15.40;;;;;;;11.39;66.10;99484.59;4982034;28;20453;-81
2022/04/23 03:26:39;;;;;;;18.80;16.20;;;;;;;11.35;65.97;99476.03;4981810;28;20702;-80
2022/04/23 03:29:06;;;;;;;18.27;16.27;;;;;;;11.28;66.38;99469.66;4975365;28;20484;-80
2022/04/23 03:31:32;;;;;;;18.43;16.07;;;;;;;11.35;66.27;99480.56;4979600;28;20579;-79
2022/04/23 03:33:59;;;;;;;19.30;16.03;;;;;;;11.30;66.32;99478.38;4982330;28;20496;-80
2022/04/23 03:36:26;;;;;;;18.27;16.33;;;;;;;11.39;65.89;99481.91;4981353;28;20475;-80
2022/04/23 03:38:54;;;;;;;23.20;17.53;;;;;;;11.25;66.20;99468.19;4981557;28;21111;-81
2022/04/23 03:41:20;;;;;;;17.83;15.27;;;;;;;11.19;65.88;99484.88;4981657;28;20480;-81
2022/04/23 03:43:47;;;;;;;19.70;15.87;;;;;;;11.17;66.40;99480.69;4981323;28;20563;-80
2022/04/23 03:46:15;;;;;;;18.40;16.40;;;;;;;11.15;66.37;99480.03;4980725;28;20544;-81
2022/04/23 03:48:42;;;;;;;18.70;15.90;;;;;;;11.13;66.33;99477.50;4981560;28;20453;-81
2022/04/23 03:51:09;;;;;;;20.20;16.97;;;;;;;11.09;66.32;99473.47;4981778;28;20479;-80
2022/04/23 03:53:36;;;;;;;18.20;16.30;;;;;;;11.04;66.11;99465.09;4980918;28;20641;-81
2022/04/23 03:56:05;;;;;;;17.87;15.97;;;;;;;11.03;66.43;99474.13;4967347;28;21102;-81
2022/04/23 03:58:32;;;;;;;18.67;16.20;;;;;;;10.99;66.17;99470.94;4967925;28;20473;-81
2022/04/23 04:00:58;;;;;;;18.93;16.33;;;;;;;11.01;66.35;99473.47;4972409;28;20898;-81
2022/04/23 04:03:26;;;;;;;20.93;15.70;;;;;;;10.88;66.40;99480.13;4981030;28;20519;-81
2022/04/23 04:05:53;;;;;;;21.37;16.90;;;;;;;11.09;66.00;99476.16;4981374;28;20472;-80
2022/04/23 04:08:19;;;;;;;18.43;15.90;;;;;;;10.97;66.06;99469.44;4981611;28;20471;-81
2022/04/23 04:10:46;;;;;;;17.77;14.70;;;;;;;10.98;65.90;99463.09;4980805;28;20495;-81
2022/04/23 04:13:14;;;;;;;19.00;15.03;;;;;;;10.95;65.81;99463.41;4981181;28;20492;-80
2022/04/23 04:15:43;;;;;;;18.20;14.20;;;;;;;11.06;65.84;99469.31;4979994;28;20480;-78
2022/04/23 04:18:11;;;;;;;19.20;15.37;;;;;;;10.89;65.71;99471.06;4981204;28;20479;-80
2022/04/23 04:20:37;;;;;;;20.07;15.30;;;;;;;10.95;65.99;99458.88;4980298;28;20504;-81
2022/04/23 04:23:05;;;;;;;20.10;15.37;;;;;;;11.01;66.00;99465.44;4980843;28;20508;-82
2022/04/23 04:25:31;;;;;;;18.53;14.60;;;;;;;11.02;65.52;99464.44;4980616;28;21013;-82
2022/04/23 04:27:59;;;;;;;19.87;14.80;;;;;;;11.01;66.11;99457.44;4981515;28;20480;-82
2022/04/23 04:31:46;;;;;;;18.10;15.13;;;;;;;11.09;65.91;99457.41;4962987;28;20528;-82
2022/04/23 04:33:14;;;;;;;19.73;16.50;;;;;;;11.09;66.01;99458.28;4980505;28;20594;-80
2022/04/23 04:35:41;;;;;;;19.93;15.30;;;;;;;11.07;66.06;99468.28;4979406;28;20551;-80
2022/04/23 04:38:08;;;;;;;18.73;15.43;;;;;;;11.02;66.08;99462.59;4977571;28;20559;-81
2022/04/23 04:40:34;;;;;;;18.43;14.23;;;;;;;11.06;66.03;99469.31;4962708;28;20497;-80
2022/04/23 04:43:01;;;;;;;17.73;14.93;;;;;;;11.01;65.81;99465.44;4969600;28;20546;-80
2022/04/23 04:45:29;;;;;;;17.83;14.73;;;;;;;11.11;65.75;99466.97;4980019;28;20472;-79
2022/04/23 04:47:55;;;;;;;17.60;14.47;;;;;;;11.05;65.74;99470.28;4965890;28;20460;-80
2022/04/23 04:50:23;;;;;;;19.00;15.20;;;;;;;11.10;65.59;99470.63;4976107;28;20457;-80
2022/04/23 04:52:49;;;;;;;20.20;14.40;;;;;;;11.04;65.34;99489.16;4966452;28;20457;-80
2022/04/23 04:55:16;;;;;;;17.90;14.97;;;;;;;11.03;65.35;99482.16;4970850;28;20516;-80
2022/04/23 04:57:42;;;;;;;17.60;13.87;;;;;;;11.06;65.28;99479.16;4971611;28;20483;-81
2022/04/23 05:00:10;;;;;;;17.53;13.93;;;;;;;11.28;64.82;99486.59;4980205;28;20528;-80
2022/04/23 05:02:39;;;;;;;18.30;13.73;;;;;;;11.90;62.52;99484.47;4980572;28;20479;-80
2022/04/23 05:05:07;;;;;;;17.10;13.60;;;;;;;11.83;62.67;99497.69;4987744;28;20452;-79
2022/04/23 05:07:33;;;;;;;14.67;12.30;;;;;;;11.84;61.89;99480.63;4999667;28;20447;-80
2022/04/23 05:10:01;;;;;;;16.60;14.07;;;;;;;12.19;60.85;99494.69;5000819;28;20447;-79
2022/04/23 05:12:27;;;;;;;14.87;13.17;;;;;;;12.42;60.21;99494.81;4982631;28;20484;-78
2022/04/23 05:14:54;;;;;;;14.90;11.90;;;;;;;12.88;58.94;99500.38;4980295;28;20484;-80
2022/04/23 05:17:21;;;;;;;16.30;13.40;;;;;;;12.58;59.13;99488.56;4980584;28;20491;-80
2022/04/23 05:19:49;;;;;;;17.03;12.20;;;;;;;12.59;58.68;99511.69;4980470;28;20506;-81
2022/04/23 05:22:15;;;;;;;16.30;13.63;;;;;;;13.07;58.09;99503.63;4980289;28;20555;-81
2022/04/23 05:24:42;;;;;;;16.20;12.40;;;;;;;12.56;58.62;99509.34;4981082;28;20463;-83
2022/04/23 05:27:08;;;;;;;14.10;12.70;;;;;;;12.41;58.56;99504.69;4974213;28;20568;-82
2022/04/23 05:29:36;;;;;;;17.73;14.30;;;;;;;12.58;58.83;99510.00;4978520;28;20444;-82
2022/04/23 05:32:02;;;;;;;18.57;13.00;;;;;;;13.07;57.23;99517.03;4981545;28;20527;-82
2022/04/23 05:34:29;;;;;;;15.10;13.07;;;;;;;13.15;56.66;99517.00;4975612;28;20508;-81
2022/04/23 05:36:57;;;;;;;14.50;12.10;;;;;;;12.88;57.57;99511.09;4982480;28;20551;-77
2022/04/23 05:39:24;;;;;;;14.67;12.57;;;;;;;12.81;57.47;99513.63;4984420;28;21047;-81
2022/04/23 05:41:50;;;;;;;13.10;11.70;;;;;;;13.08;56.96;99516.84;4982907;28;20504;-83
2022/04/23 05:44:17;;;;;;;12.90;11.10;;;;;;;13.08;56.68;99510.66;4968644;28;20479;-82
2022/04/23 05:46:43;;;;;;;13.33;11.07;;;;;;;13.11;56.52;99516.53;4983629;28;20484;-81
2022/04/23 05:49:10;;;;;;;16.90;12.67;;;;;;;13.25;56.02;99525.69;4984127;28;20661;-82
2022/04/23 05:51:37;;;;;;;15.43;11.93;;;;;;;13.20;56.38;99520.00;4983212;28;20480;-81
2022/04/23 05:54:05;;;;;;;16.80;12.43;;;;;;;13.71;54.87;99522.22;4982701;28;20579;-80
2022/04/23 05:56:31;;;;;;;13.93;11.27;;;;;;;13.81;54.03;99519.31;4981561;28;20539;-83
2022/04/23 05:59:00;;;;;;;15.90;12.80;;;;;;;13.66;54.68;99519.25;4972838;28;20451;-79
2022/04/23 06:01:26;;;;;;;14.50;11.30;;;;;;;14.54;52.06;99520.50;4985941;28;20511;-85
2022/04/23 06:03:53;;;;;;;14.63;12.50;;;;;;;14.47;52.28;99519.56;4985836;28;20520;-84
2022/04/23 06:06:20;;;;;;;14.70;12.20;;;;;;;13.77;53.76;99520.69;4984220;28;20515;-81
2022/04/23 06:08:47;;;;;;;15.23;11.97;;;;;;;13.63;54.01;99531.19;4985837;28;20453;-83
2022/04/23 06:11:15;;;;;;;15.70;12.80;;;;;;;14.27;52.50;99521.97;4984687;28;20480;-81
2022/04/23 06:13:41;;;;;;;14.43;12.10;;;;;;;14.15;52.69;99526.94;4984177;28;20534;-83
2022/04/23 06:16:08;;;;;;;12.50;11.20;;;;;;;14.22;52.09;99517.13;4984673;28;20499;-81
2022/04/23 06:18:35;;;;;;;16.10;13.03;;;;;;;14.88;51.30;99530.75;4983543;28;20452;-82
2022/04/23 06:21:01;;;;;;;14.90;11.83;;;;;;;14.95;49.83;99520.06;4992916;28;20705;-83
2022/04/23 06:23:28;;;;;;;14.37;12.10;;;;;;;14.97;49.47;99522.59;4981564;28;20492;-77
2022/04/23 06:25:55;;;;;;;11.50;9.43;;;;;;;14.12;51.45;99529.97;4998039;28;20476;-79
2022/04/23 06:28:23;;;;;;;14.27;11.70;;;;;;;14.35;51.77;99523.72;5004657;28;20774;-79
2022/04/23 06:30:49;;;;;;;13.40;11.03;;;;;;;14.96;49.73;99516.34;4984423;28;20476;-78
2022/04/23 06:33:17;;;;;;;13.87;11.97;;;;;;;15.14;49.56;99529.44;4985057;28;20827;-85
2022/04/23 06:35:44;;;;;;;13.13;11.77;;;;;;;15.60;48.16;99526.41;4982789;28;20490;-79
2022/04/23 06:38:11;;;;;;;21.83;11.77;;;;;;;16.45;46.21;99531.16;4983159;28;20523;-84
2022/04/23 06:40:38;;;;;;;14.83;11.83;;;;;;;15.59;47.72;99532.84;4983647;28;20505;-82
2022/04/23 06:43:05;;;;;;;14.87;12.60;;;;;;;16.19;46.89;99538.81;4981431;28;20492;-80
2022/04/23 06:45:33;;;;;;;15.63;12.23;;;;;;;15.51;48.07;99543.72;4981544;28;20468;-80
2022/04/23 06:48:04;;;;;;;13.20;11.40;;;;;;;15.48;47.60;99548.66;4976804;28;20910;-81
2022/04/23 06:50:31;;;;;;;13.93;12.20;;;;;;;14.83;49.67;99557.38;4966914;28;20479;-85
2022/04/23 06:52:58;;;;;;;17.93;12.20;;;;;;;15.06;48.75;99559.13;4982151;28;20444;-78
2022/04/23 06:55:25;;;;;;;13.10;11.20;;;;;;;15.48;47.38;99549.50;5000138;28;20525;-80
2022/04/23 06:57:51;;;;;;;16.10;11.30;;;;;;;15.85;46.74;99552.19;4997649;28;20436;-82
2022/04/23 07:00:19;;;;;;;13.17;11.77;;;;;;;17.67;43.26;99551.28;4981197;28;20456;-79
2022/04/23 07:02:47;;;;;;;14.40;12.90;;;;;;;17.12;43.98;99532.41;4982551;28;21122;-79
2022/04/23 07:05:13;;;;;;;12.87;11.33;;;;;;;16.30;44.21;99548.28;4981313;28;20743;-76
2022/04/23 07:07:40;;;;;;;15.00;12.97;;;;;;;16.46;44.52;99539.06;4981212;28;20476;-78
2022/04/23 07:10:07;;;;;;;13.40;12.03;;;;;;;15.77;45.67;99554.00;5000953;28;20456;-79
2022/04/23 07:12:34;;;;;;;12.93;11.63;;;;;;;16.33;44.82;99539.75;4996140;28;20453;-81
2022/04/23 07:15:01;;;;;;;13.37;11.43;;;;;;;17.39;42.62;99543.31;4981629;28;20496;-81
2022/04/23 07:17:28;;;;;;;15.47;12.47;;;;;;;17.78;41.37;99541.78;4981018;28;20492;-81
2022/04/23 07:19:56;;;;;;;13.17;11.77;;;;;;;17.56;40.96;99547.31;4980064;28;20483;-80
2022/04/23 07:22:22;;;;;;;12.90;11.70;;;;;;;17.84;41.07;99546.34;4980194;28;20481;-82
2022/04/23 07:24:50;;;;;;;12.67;11.37;;;;;;;18.10;40.12;99544.75;4977491;28;20480;-79
2022/04/23 07:27:17;;;;;;;12.57;10.83;;;;;;;17.80;40.63;99555.91;4981509;28;20476;-73
2022/04/23 07:29:43;;;;;;;15.83;12.67;;;;;;;17.10;41.84;99542.59;4983350;28;20440;-77
2022/04/23 07:32:10;;;;;;;12.73;11.43;;;;;;;17.90;41.21;99553.69;4982617;28;20480;-76
2022/04/23 07:37:33;;;;;;;12.90;11.70;;;;;;;17.91;40.01;99536.41;4982639;28;20519;-79
2022/04/23 07:40:01;;;;;;;12.53;11.23;;;;;;;18.20;39.75;99535.19;4983910;28;20480;-80
2022/04/23 07:42:27;;;;;;;12.47;11.27;;;;;;;18.97;38.12;99542.81;4982515;28;20492;-80
2022/04/23 07:44:54;;;;;;;11.60;10.50;;;;;;;19.22;38.28;99540.22;4962980;28;20480;-78
2022/04/23 07:47:21;;;;;;;12.33;11.13;;;;;;;18.63;38.49;99545.56;4965738;28;20489;-76
2022/04/23 07:49:48;;;;;;;12.67;11.40;;;;;;;18.89;38.47;99524.91;4983039;28;20498;-81
2022/04/23 07:52:14;;;;;;;11.97;10.83;;;;;;;18.04;40.01;99546.41;4980094;28;20484;-77
2022/04/23 07:54:43;;;;;;;13.20;11.97;;;;;;;18.33;39.57;99534.34;4988429;28;20564;-77
2022/04/23 07:57:10;;;;;;;12.63;11.30;;;;;;;19.00;38.58;99532.38;4985299;28;20473;-78
2022/04/23 07:59:40;;;;;;;12.03;10.93;;;;;;;19.62;37.14;99539.22;4982535;28;20472;-78
2022/04/23 08:02:07;;;;;;;12.63;11.47;;;;;;;19.80;36.27;99533.09;4982888;28;20474;-83
2022/04/23 08:04:33;;;;;;;12.80;11.50;;;;;;;18.84;37.97;99537.44;4982981;28;20484;-76
2022/04/23 08:07:00;;;;;;;12.60;11.30;;;;;;;18.91;37.92;99533.66;4981822;28;20504;-79
2022/04/23 08:09:26;;;;;;;11.10;10.00;;;;;;;18.48;37.01;99530.59;4989960;28;20447;-76
2022/04/23 08:11:55;;;;;;;12.90;10.50;;;;;;;18.18;37.92;99533.72;5002523;28;20530;-80
2022/04/23 08:14:21;;;;;;;12.03;10.20;;;;;;;18.77;36.82;99537.41;5000814;28;20933;-75
2022/04/23 08:16:50;;;;;;;10.47;9.47;;;;;;;19.94;35.38;99531.94;4994631;28;20472;-78
2022/04/23 08:19:18;;;;;;;11.23;10.13;;;;;;;19.99;34.09;99525.84;4980391;28;20488;-78
2022/04/23 08:21:44;;;;;;;10.97;9.87;;;;;;;18.80;35.19;99543.25;4980565;28;20472;-79
2022/04/23 08:24:11;;;;;;;11.30;10.07;;;;;;;17.72;36.73;99539.88;4981987;28;20456;-80
2022/04/23 08:26:37;;;;;;;12.37;9.73;;;;;;;18.80;35.40;99528.84;4981131;28;20484;-78
2022/04/23 08:31:50;;;;;;;10.20;9.10;;;;;;;17.70;37.11;99535.50;4980557;28;20804;-77
2022/04/23 08:34:16;;;;;;;10.97;9.87;;;;;;;17.75;37.00;99534.06;4981401;28;20492;-78
2022/04/23 08:36:43;;;;;;;11.07;9.97;;;;;;;18.51;35.94;99533.72;4991532;28;20625;-79
2022/04/23 08:39:09;;;;;;;12.03;10.43;;;;;;;17.54;36.84;99535.88;4988128;28;20473;-78
2022/04/23 08:41:36;;;;;;;11.67;10.07;;;;;;;17.54;37.10;99544.00;4981813;28;20572;-80
2022/04/23 08:44:06;;;;;;;12.17;9.97;;;;;;;18.23;35.74;99520.41;4980814;28;20563;-83
2022/04/23 08:46:34;;;;;;;11.17;9.97;;;;;;;18.52;35.54;99526.41;4981783;28;20490;-79
2022/04/23 08:49:08;;;;;;;10.33;8.83;;;;;;;17.82;36.75;99532.19;4982525;28;20523;-80
2022/04/23 08:51:36;;;;;;;12.57;10.13;;;;;;;18.20;35.50;99532.47;4990920;28;20460;-80
2022/04/23 08:54:08;;;;;;;10.90;9.90;;;;;;;18.76;35.18;99523.03;4973496;28;20492;-79
2022/04/23 08:56:36;;;;;;;9.90;8.70;;;;;;;19.25;34.40;99526.25;4962041;28;20489;-81
2022/04/23 08:59:06;;;;;;;11.00;9.90;;;;;;;19.68;33.95;99525.59;4972134;28;20463;-79
2022/04/23 09:01:33;;;;;;;10.17;9.27;;;;;;;19.83;33.84;99514.47;4995986;28;20518;-79
2022/04/23 09:04:01;;;;;;;10.90;9.80;;;;;;;19.69;34.30;99504.75;4999952;28;20486;-80
2022/04/23 09:06:35;;;;;;;11.33;10.23;;;;;;;19.36;34.40;99519.31;4980429;28;20476;-78
2022/04/23 09:09:24;;;;;;;12.40;9.97;;;;;;;20.08;32.91;99513.66;4981570;28;20444;-82
2022/04/23 09:11:54;;;;;;;11.23;10.03;;;;;;;19.01;34.02;99522.38;4982362;28;20482;-83
2022/04/23 09:14:28;;;;;;;12.57;9.50;;;;;;;18.42;35.02;99522.28;4983023;28;20991;-78
2022/04/23 09:25:30;;;;;;;11.07;10.00;;;;;;;19.06;34.61;99505.47;5001089;28;21145;-78
2022/04/23 09:27:57;;;;;;;10.53;9.07;;;;;;;18.69;34.41;99488.91;4999333;28;20445;-77
2022/04/23 09:30:36;;;;;;;11.83;10.67;;;;;;;19.15;33.82;99505.03;4985686;28;20452;-78
2022/04/23 09:33:03;;;;;;;11.23;10.17;;;;;;;19.00;34.21;99496.34;4985478;28;20463;-79
2022/04/23 09:35:29;;;;;;;12.73;9.20;;;;;;;19.67;33.49;99506.81;4972224;28;20481;-77
2022/04/23 09:38:14;;;;;;;10.53;8.43;;;;;;;20.19;32.37;99512.13;4984317;28;20588;-79
2022/04/23 09:40:41;;;;;;;12.33;10.27;;;;;;;20.34;31.68;99504.47;4984633;28;20499;-78
2022/04/23 09:43:09;;;;;;;9.93;8.70;;;;;;;20.54;31.35;99489.91;4984283;28;20460;-78
2022/04/23 09:45:41;;;;;;;9.63;8.73;;;;;;;19.91;32.44;99508.81;4983658;28;20910;-77
2022/04/23 09:48:16;;;;;;;10.70;9.67;;;;;;;20.09;31.92;99501.78;4978822;28;20476;-78
2022/04/23 09:50:45;;;;;;;9.07;8.27;;;;;;;20.27;31.35;99492.84;4983335;28;20530;-78
2022/04/23 09:53:12;;;;;;;11.00;9.30;;;;;;;20.06;31.65;99492.19;4985557;28;20515;-78
2022/04/23 09:55:39;;;;;;;10.07;8.77;;;;;;;20.78;30.82;99493.59;4983912;28;20488;-78
2022/04/23 09:58:07;;;;;;;9.20;8.30;;;;;;;21.89;29.75;99499.72;4984221;28;20487;-77
2022/04/23 10:00:37;;;;;;;8.67;7.87;;;;;;;19.42;32.14;99491.34;4984392;28;20492;-78
2022/04/23 10:03:07;;;;;;;9.90;8.90;;;;;;;19.82;32.08;99491.09;4985353;28;20444;-79
2022/04/23 10:05:37;;;;;;;8.10;7.30;;;;;;;20.08;31.32;99494.69;4977340;28;20488;-79
2022/04/23 10:08:05;;;;;;;9.63;8.63;;;;;;;19.63;32.17;99506.44;4991104;28;20452;-79
2022/04/23 10:10:34;;;;;;;9.00;8.17;;;;;;;19.32;32.47;99489.13;4989504;28;20535;-78
2022/04/23 10:13:01;;;;;;;9.13;8.33;;;;;;;19.76;32.08;99489.28;4984003;28;20812;-78
2022/04/23 10:15:28;;;;;;;7.60;7.00;;;;;;;19.13;32.35;99495.44;4983447;28;20491;-79
2022/04/23 10:17:56;;;;;;;8.50;7.70;;;;;;;19.53;31.80;99496.09;4983374;28;20456;-79
2022/04/23 10:20:25;;;;;;;9.50;8.60;;;;;;;19.26;32.16;99489.16;4978442;28;20461;-78
2022/04/23 10:22:58;;;;;;;8.70;7.80;;;;;;;20.62;30.58;99473.31;4984138;28;20535;-79
2022/04/23 10:25:33;;;;;;;9.10;7.77;;;;;;;19.64;31.59;99481.00;4983684;28;20520;-79
2022/04/23 10:28:00;;;;;;;7.97;7.17;;;;;;;19.30;32.26;99474.91;4983942;28;20771;-79
2022/04/23 10:30:28;;;;;;;9.30;8.40;;;;;;;18.94;32.76;99464.66;4983175;28;20503;-80
2022/04/23 10:32:56;;;;;;;8.87;7.93;;;;;;;19.55;31.55;99475.00;4984760;28;20437;-80
2022/04/23 10:35:33;;;;;;;8.87;7.97;;;;;;;19.46;32.28;99475.47;4980720;28;20562;-79
2022/04/23 10:38:16;;;;;;;8.23;7.43;;;;;;;19.87;30.96;99496.72;4983983;28;20451;-79
2022/04/23 10:40:43;;;;;;;9.67;8.77;;;;;;;19.54;32.38;99472.50;4983303;28;20523;-79
2022/04/23 10:43:12;;;;;;;9.50;8.70;;;;;;;19.92;31.86;99474.34;4982070;28;20787;-79
2022/04/23 10:45:40;;;;;;;10.23;9.33;;;;;;;18.88;32.70;99485.31;4981952;28;20837;-79
2022/04/23 10:48:34;;;;;;;9.40;8.50;;;;;;;19.69;31.61;99470.31;4983144;28;20444;-79
2022/04/23 10:51:03;;;;;;;9.03;8.03;;;;;;;20.05;31.21;99478.84;4982687;28;20488;-80
2022/04/23 10:53:31;;;;;;;9.10;8.20;;;;;;;19.88;31.61;99482.09;4983672;28;20432;-80
2022/04/23 10:56:16;;;;;;;9.97;8.07;;;;;;;21.37;29.65;99461.31;4981975;28;20483;-79
2022/04/23 10:58:43;;;;;;;8.80;7.90;;;;;;;20.73;30.47;99478.00;4983780;28;20845;-80
2022/04/23 11:01:36;;;;;;;9.73;8.73;;;;;;;19.68;31.32;99468.66;4983261;28;20472;-80
2022/04/23 11:04:13;;;;;;;10.03;8.33;;;;;;;19.61;31.23;99476.00;4966653;28;20465;-80
2022/04/23 11:12:28;;;;;;;12.33;9.27;;;;;;;19.89;30.71;99461.22;4982093;28;20482;-79
2022/04/23 11:14:56;;;;;;;8.80;7.90;;;;;;;19.35;31.88;99466.97;4982568;28;20463;-79
2022/04/23 11:17:25;;;;;;;8.90;8.10;;;;;;;19.11;31.80;99451.47;4980515;28;20487;-79
2022/04/23 11:19:53;;;;;;;8.50;7.60;;;;;;;19.89;31.76;99462.06;4981870;28;20507;-79
2022/04/23 11:22:21;;;;;;;9.83;8.90;;;;;;;20.45;31.12;99462.16;4981935;28;20967;-79
2022/04/23 11:24:48;;;;;;;8.17;7.47;;;;;;;20.44;30.96;99452.38;4982279;28;20965;-79
2022/04/23 11:27:25;;;;;;;9.93;8.93;;;;;;;20.41;30.61;99453.66;4980738;28;20516;-79
2022/04/23 11:29:52;;;;;;;9.83;8.87;;;;;;;19.80;32.12;99443.56;4982128;28;20448;-78
2022/04/23 11:32:26;;;;;;;8.43;7.70;;;;;;;20.16;30.67;99448.28;4981831;28;20555;-79
2022/04/23 11:34:57;;;;;;;9.00;8.20;;;;;;;19.75;31.49;99446.94;4971074;28;20458;-78
2022/04/23 11:37:31;;;;;;;9.40;8.40;;;;;;;19.72;31.46;99455.47;4978678;28;20568;-78
2022/04/23 11:40:09;;;;;;;8.03;7.23;;;;;;;19.44;32.07;99435.00;4982132;28;20440;-78
2022/04/23 11:42:39;;;;;;;8.43;7.57;;;;;;;19.79;31.85;99445.47;4980355;28;20472;-78